Time;durP1;ratioP1;P1;durP2;ratioP2;P2;SDS_P1;SDS_P2;PMS_P1;PMS_P2;Temp;Humidity;BMP_temperature;BMP_pressure;BME280_temperature;BME280_humidity;BME280_pressure;Samples;Min_cycle;Max_cycle;Signal;HPM_P1;HPM_P2
2023/04/22 00:02:23;;;;;;;9.70;2.40;;;22.90;54.70;;;;;;4801071;29;20076;-80
2023/04/22 00:04:49;;;;;;;12.77;2.55;;;22.90;54.70;;;;;;4808295;29;20043;-79
2023/04/22 00:07:16;;;;;;;6.30;2.58;;;22.90;54.80;;;;;;4793271;29;20085;-80
2023/04/22 00:09:42;;;;;;;5.95;2.15;;;22.90;54.90;;;;;;4808500;29;20054;-80
2023/04/22 00:12:10;;;;;;;6.03;1.98;;;22.90;54.90;;;;;;4812952;29;20448;-79
2023/04/22 00:14:36;;;;;;;4.18;2.40;;;22.80;54.80;;;;;;4807431;29;20046;-80
2023/04/22 00:17:02;;;;;;;5.15;1.98;;;22.70;54.80;;;;;;4805717;29;20058;-79
2023/04/22 00:19:29;;;;;;;3.72;2.20;;;22.70;54.90;;;;;;4791613;29;20176;-79
2023/04/22 00:21:55;;;;;;;3.17;2.03;;;22.80;54.90;;;;;;4813851;29;20042;-79
2023/04/22 00:24:21;;;;;;;8.68;2.15;;;22.80;54.90;;;;;;4805026;29;20079;-79
2023/04/22 00:26:47;;;;;;;3.33;1.83;;;22.80;54.90;;;;;;4810013;29;20161;-79
2023/04/22 00:29:13;;;;;;;7.68;1.95;;;22.80;54.90;;;;;;4806611;29;20117;-79
2023/04/22 00:31:39;;;;;;;4.57;2.70;;;22.70;54.80;;;;;;4819215;29;20340;-79
2023/04/22 00:34:05;;;;;;;5.35;2.05;;;22.70;54.90;;;;;;4823953;29;20447;-79
2023/04/22 00:36:31;;;;;;;10.02;2.42;;;22.90;54.90;;;;;;4823395;29;20114;-79
2023/04/22 00:38:57;;;;;;;9.40;2.53;;;22.90;55.00;;;;;;4808167;29;20431;-79
2023/04/22 00:41:24;;;;;;;5.15;2.15;;;22.90;55.00;;;;;;4824084;29;20041;-79
2023/04/22 00:43:52;;;;;;;4.22;2.08;;;22.90;55.00;;;;;;4822792;29;20471;-79
2023/04/22 00:46:19;;;;;;;7.82;1.88;;;22.90;54.90;;;;;;4816837;29;20431;-79
2023/04/22 00:48:45;;;;;;;9.57;1.80;;;22.80;54.90;;;;;;4824915;29;20030;-79
2023/04/22 00:51:12;;;;;;;4.25;2.40;;;22.80;55.00;;;;;;4824451;29;20042;-79
2023/04/22 00:53:43;;;;;;;4.50;1.95;;;22.70;55.10;;;;;;4823218;29;20418;-79
2023/04/22 00:56:10;;;;;;;10.98;2.33;;;22.60;55.20;;;;;;4823885;29;20030;-79
2023/04/22 00:58:36;;;;;;;4.80;2.38;;;22.70;55.20;;;;;;4824558;29;20030;-79
2023/04/22 01:01:02;;;;;;;5.40;2.13;;;22.70;55.30;;;;;;4830330;29;20472;-79
2023/04/22 01:03:30;;;;;;;5.38;2.22;;;22.80;55.20;;;;;;4823478;29;20449;-79
2023/04/22 01:05:57;;;;;;;7.25;2.10;;;22.60;55.10;;;;;;4815068;29;20380;-79
2023/04/22 01:08:28;;;;;;;5.43;2.67;;;22.60;55.20;;;;;;4789439;29;20057;-79
2023/04/22 01:10:56;;;;;;;4.78;2.08;;;22.50;55.30;;;;;;4803885;29;20156;-79
2023/04/22 01:13:23;;;;;;;6.10;2.67;;;22.50;55.40;;;;;;4794234;29;20107;-79
2023/04/22 01:15:51;;;;;;;10.55;2.20;;;22.60;55.50;;;;;;4812186;29;20098;-79
2023/04/22 01:18:18;;;;;;;6.70;2.00;;;22.40;55.40;;;;;;4790419;29;20082;-79
2023/04/22 01:20:44;;;;;;;10.25;3.00;;;22.50;55.50;;;;;;4817875;29;20034;-79
2023/04/22 01:23:18;;;;;;;5.22;2.78;;;22.50;55.50;;;;;;4806524;29;20038;-79
2023/04/22 01:25:46;;;;;;;8.38;2.78;;;22.50;55.50;;;;;;4822211;29;20043;-79
2023/04/22 01:28:12;;;;;;;5.47;2.53;;;22.50;55.40;;;;;;4815502;29;20196;-79
2023/04/22 01:30:39;;;;;;;8.43;3.25;;;22.50;55.40;;;;;;4817234;29;20047;-79
2023/04/22 01:33:07;;;;;;;8.65;3.03;;;22.50;55.30;;;;;;4800636;29;21087;-80
2023/04/22 01:35:35;;;;;;;8.55;3.03;;;22.60;55.30;;;;;;4813802;29;20534;-79
2023/04/22 01:38:03;;;;;;;6.78;2.28;;;22.60;55.30;;;;;;4806838;29;20038;-79
2023/04/22 01:40:31;;;;;;;11.80;3.17;;;22.60;55.30;;;;;;4825229;29;20136;-79
2023/04/22 01:43:01;;;;;;;5.72;2.72;;;22.60;55.30;;;;;;4820247;29;20072;-79
2023/04/22 01:45:28;;;;;;;10.88;2.58;;;22.60;55.20;;;;;;4812034;29;20041;-79
2023/04/22 01:47:55;;;;;;;7.25;2.50;;;22.50;55.20;;;;;;4816878;29;20038;-79
2023/04/22 01:50:21;;;;;;;4.07;2.70;;;22.60;55.30;;;;;;4823278;29;20512;-79
2023/04/22 01:52:48;;;;;;;11.20;2.90;;;22.60;55.30;;;;;;4807206;29;20043;-79
2023/04/22 01:55:14;;;;;;;7.93;2.17;;;22.60;55.30;;;;;;4823510;29;20035;-79
2023/04/22 01:57:42;;;;;;;7.28;2.20;;;22.50;55.40;;;;;;4819813;29;20386;-79
2023/04/22 02:00:09;;;;;;;9.20;2.50;;;22.40;55.30;;;;;;4805306;29;20038;-79
2023/04/22 02:02:46;;;;;;;7.70;2.50;;;22.40;55.30;;;;;;4806893;29;20042;-79
2023/04/22 02:05:13;;;;;;;6.57;2.70;;;22.50;55.40;;;;;;4813454;29;20042;-79
2023/04/22 02:07:39;;;;;;;10.45;2.75;;;22.40;55.30;;;;;;4804559;29;20402;-79
2023/04/22 02:10:05;;;;;;;8.80;2.13;;;22.50;55.50;;;;;;4817097;29;20399;-79
2023/04/22 02:12:31;;;;;;;6.28;2.40;;;22.40;55.40;;;;;;4822521;29;20114;-79
2023/04/22 02:14:58;;;;;;;8.25;2.70;;;22.40;55.40;;;;;;4824028;29;20052;-79
2023/04/22 02:17:25;;;;;;;9.27;2.60;;;22.40;55.50;;;;;;4810987;29;20055;-79
2023/04/22 02:24:18;;;;;;;8.32;2.60;;;22.30;55.60;;;;;;4785475;29;20143;-79
2023/04/22 02:26:44;;;;;;;7.13;3.03;;;22.40;55.60;;;;;;4770473;30;20122;-79
2023/04/22 02:29:10;;;;;;;4.10;2.75;;;22.30;55.60;;;;;;4800124;29;20061;-79
2023/04/22 02:31:36;;;;;;;4.90;2.50;;;22.30;55.60;;;;;;4779418;29;20942;-79
2023/04/22 02:34:03;;;;;;;5.25;2.40;;;22.40;55.50;;;;;;4802521;29;20122;-79
2023/04/22 02:36:30;;;;;;;5.90;2.83;;;22.30;55.50;;;;;;4803165;29;20137;-78
2023/04/22 02:38:57;;;;;;;7.65;2.17;;;22.20;55.40;;;;;;4734824;30;20521;-79
2023/04/22 02:41:23;;;;;;;10.07;2.38;;;22.40;55.50;;;;;;4749594;30;20063;-79
2023/04/22 02:43:49;;;;;;;8.98;2.17;;;22.50;55.50;;;;;;4723691;30;20521;-79
2023/04/22 02:46:16;;;;;;;9.40;3.10;;;22.30;55.40;;;;;;4723348;30;20062;-79
2023/04/22 02:48:43;;;;;;;7.72;3.20;;;22.30;55.50;;;;;;4752859;30;20590;-79
2023/04/22 02:51:10;;;;;;;8.65;3.17;;;22.40;55.50;;;;;;4734992;30;20052;-79
2023/04/22 02:53:36;;;;;;;5.43;2.55;;;22.50;55.60;;;;;;4750662;30;20088;-79
2023/04/22 02:56:02;;;;;;;12.73;2.63;;;22.30;55.50;;;;;;4740749;30;20047;-79
2023/04/22 02:58:28;;;;;;;5.82;2.40;;;22.30;55.50;;;;;;4770482;30;20101;-79
2023/04/22 03:06:06;;;;;;;12.30;3.13;;;22.40;55.50;;;;;;4756704;30;20068;-79
2023/04/22 03:08:32;;;;;;;3.38;2.20;;;22.20;55.40;;;;;;4755644;30;20056;-79
2023/04/22 03:10:58;;;;;;;8.32;2.30;;;22.10;55.60;;;;;;4803328;29;20142;-79
2023/04/22 03:13:24;;;;;;;7.30;2.58;;;22.20;55.80;;;;;;4808078;29;20455;-79
2023/04/22 03:15:50;;;;;;;6.28;2.22;;;22.10;55.60;;;;;;4830595;29;20395;-79
2023/04/22 03:18:16;;;;;;;6.65;2.42;;;22.10;55.70;;;;;;4807929;29;20059;-79
2023/04/22 03:20:43;;;;;;;2.67;1.88;;;22.20;55.70;;;;;;4807535;29;20043;-79
2023/04/22 03:23:10;;;;;;;9.18;2.47;;;22.10;55.80;;;;;;4820087;29;20122;-79
2023/04/22 03:25:36;;;;;;;10.40;2.40;;;22.00;55.70;;;;;;4824759;29;20030;-79
2023/04/22 03:28:03;;;;;;;5.97;2.72;;;22.10;55.70;;;;;;4839873;29;20038;-80
2023/04/22 03:30:30;;;;;;;9.20;2.92;;;22.20;55.70;;;;;;4808592;29;20604;-79
2023/04/22 03:37:38;;;;;;;7.13;2.60;;;22.10;55.70;;;;;;4810496;29;20518;-79
2023/04/22 03:40:06;;;;;;;8.52;3.03;;;22.10;55.60;;;;;;4850063;29;20120;-79
2023/04/22 03:42:33;;;;;;;8.07;2.83;;;22.10;55.60;;;;;;4832184;29;20039;-79
2023/04/22 03:44:59;;;;;;;8.63;2.40;;;22.10;55.50;;;;;;4823598;29;20506;-79
2023/04/22 03:47:28;;;;;;;5.65;2.70;;;22.20;55.60;;;;;;4824777;29;20038;-79
2023/04/22 03:50:01;;;;;;;11.88;2.63;;;22.10;55.40;;;;;;4824562;29;20031;-79
2023/04/22 03:52:31;;;;;;;9.02;2.42;;;22.10;55.50;;;;;;4809990;29;20038;-79
2023/04/22 03:55:00;;;;;;;6.28;2.65;;;22.10;55.50;;;;;;4792412;29;20132;-79
2023/04/22 04:02:08;;;;;;;9.30;2.40;;;22.20;55.40;;;;;;4815521;29;20025;-78
2023/04/22 04:04:34;;;;;;;4.43;2.58;;;22.20;55.30;;;;;;4821317;29;20038;-79
2023/04/22 04:07:00;;;;;;;4.10;2.30;;;22.20;55.30;;;;;;4809776;29;20428;-79
2023/04/22 04:09:27;;;;;;;15.88;3.58;;;22.20;55.30;;;;;;4810105;29;20049;-79
2023/04/22 04:11:53;;;;;;;7.15;3.20;;;22.10;55.20;;;;;;4826190;29;20375;-79
2023/04/22 04:18:49;;;;;;;11.82;4.28;;;22.10;55.20;;;;;;4800699;29;20115;-79
2023/04/22 04:21:16;;;;;;;12.30;4.30;;;22.00;55.20;;;;;;4824612;29;20375;-79
2023/04/22 04:23:47;;;;;;;8.98;3.78;;;22.20;55.30;;;;;;4809487;29;20042;-79
2023/04/22 04:26:13;;;;;;;14.88;4.85;;;22.10;55.40;;;;;;4837500;29;20039;-79
2023/04/22 04:28:43;;;;;;;12.77;7.82;;;22.10;55.30;;;;;;4837201;29;20506;-79
2023/04/22 04:31:10;;;;;;;15.73;8.27;;;22.00;55.30;;;;;;4823545;29;20756;-79
2023/04/22 04:33:36;;;;;;;11.13;5.88;;;22.10;55.40;;;;;;4810069;29;20043;-79
2023/04/22 04:36:03;;;;;;;9.73;4.05;;;22.00;55.40;;;;;;4809563;29;20034;-79
2023/04/22 04:38:33;;;;;;;8.70;3.47;;;22.00;55.40;;;;;;4823973;29;20086;-79
2023/04/22 04:45:52;;;;;;;5.40;3.20;;;22.00;55.40;;;;;;4824614;29;20069;-79
2023/04/22 04:48:25;;;;;;;9.02;3.33;;;21.90;54.80;;;;;;4823267;29;20042;-79
2023/04/22 04:50:57;;;;;;;7.72;3.55;;;21.90;55.70;;;;;;4824252;29;20041;-79
2023/04/22 04:53:26;;;;;;;9.95;3.92;;;21.90;55.00;;;;;;4824752;29;20038;-79
2023/04/22 04:55:52;;;;;;;8.05;3.00;;;22.00;55.60;;;;;;4824037;29;20043;-79
2023/04/22 04:58:21;;;;;;;5.60;2.97;;;22.00;55.20;;;;;;4821559;29;20034;-79
2023/04/22 05:00:56;;;;;;;18.38;6.45;;;21.90;55.30;;;;;;4822524;29;20410;-78
2023/04/22 05:03:24;;;;;;;10.52;5.80;;;21.90;54.90;;;;;;4818913;29;20533;-79
2023/04/22 05:10:16;;;;;;;3.85;2.92;;;21.90;55.70;;;;;;4807030;29;20097;-79
2023/04/22 05:12:45;;;;;;;9.80;3.83;;;22.00;54.80;;;;;;4823458;29;20054;-79
2023/04/22 05:15:15;;;;;;;10.25;3.88;;;22.00;55.40;;;;;;4838826;29;20057;-79
2023/04/22 05:17:42;;;;;;;8.20;3.42;;;22.00;55.30;;;;;;4804919;29;20161;-79
2023/04/22 05:20:09;;;;;;;11.73;4.10;;;22.10;55.30;;;;;;4806555;29;20046;-79
2023/04/22 05:22:40;;;;;;;15.85;5.38;;;22.10;55.20;;;;;;4811367;29;20044;-79
2023/04/22 05:25:06;;;;;;;14.23;6.05;;;22.10;55.10;;;;;;4823340;29;20049;-79
2023/04/22 05:27:33;;;;;;;12.50;5.30;;;22.30;55.20;;;;;;4808339;29;20190;-79
2023/04/22 05:29:59;;;;;;;10.32;4.00;;;22.20;55.00;;;;;;4813066;29;20144;-83
2023/04/22 05:32:30;;;;;;;17.88;3.60;;;22.40;55.10;;;;;;4812268;29;20039;-79
2023/04/22 05:34:56;;;;;;;5.70;2.97;;;22.30;54.90;;;;;;4817914;29;20130;-78
2023/04/22 05:37:22;;;;;;;10.57;2.95;;;22.30;54.80;;;;;;4823535;29;20046;-78
2023/04/22 05:45:34;;;;;;;12.30;3.53;;;22.50;54.80;;;;;;4824706;29;20061;-78
2023/04/22 05:48:02;;;;;;;13.32;4.50;;;22.40;55.20;;;;;;4821034;29;20395;-79
2023/04/22 05:50:32;;;;;;;7.88;3.22;;;22.50;55.90;;;;;;4812390;29;20522;-78
2023/04/22 05:53:05;;;;;;;14.73;3.88;;;22.50;56.30;;;;;;4818011;29;20441;-79
2023/04/22 05:55:31;;;;;;;12.70;3.30;;;22.50;56.60;;;;;;4804912;29;22092;-78
2023/04/22 05:57:57;;;;;;;9.38;3.80;;;22.60;56.90;;;;;;4825305;29;20063;-78
2023/04/22 06:00:46;;;;;;;7.40;3.75;;;22.70;56.80;;;;;;4785522;30;20044;-81
2023/04/22 06:03:30;;;;;;;;;;;22.90;56.70;;;;;;4786332;30;20050;-80
2023/04/22 06:05:56;;;;;;;11.48;3.30;;;23.00;57.00;;;;;;4771330;30;19914;-81
2023/04/22 06:08:22;;;;;;;10.27;3.53;;;22.90;57.40;;;;;;4787573;30;20930;-82
2023/04/22 06:10:49;;;;;;;7.00;3.20;;;22.90;57.60;;;;;;4786100;30;20156;-82
2023/04/22 06:13:16;;;;;;;6.03;3.42;;;22.90;51.10;;;;;;4770303;30;20428;-84
2023/04/22 06:15:42;;;;;;;9.52;3.55;;;23.10;50.90;;;;;;4742273;30;20060;-81
2023/04/22 06:18:09;;;;;;;3.28;2.63;;;23.00;51.20;;;;;;4731271;30;20129;-79
2023/04/22 06:20:35;;;;;;;5.28;2.92;;;23.20;51.80;;;;;;4746255;30;20708;-78
2023/04/22 06:23:04;;;;;;;8.02;3.05;;;23.30;50.00;;;;;;4754134;30;20040;-83
2023/04/22 06:25:31;;;;;;;6.20;3.13;;;23.40;46.60;;;;;;4739146;30;20468;-78
2023/04/22 06:27:58;;;;;;;8.00;2.35;;;23.30;46.90;;;;;;4739287;30;20098;-80
2023/04/22 06:30:26;;;;;;;3.25;2.65;;;23.30;47.40;;;;;;4724250;30;20044;-80
2023/04/22 06:32:54;;;;;;;4.88;2.50;;;23.40;47.30;;;;;;4707027;30;20056;-81
2023/04/22 06:35:20;;;;;;;9.68;2.85;;;23.60;47.80;;;;;;4721475;30;20053;-78
2023/04/22 06:37:47;;;;;;;6.05;2.15;;;23.60;48.00;;;;;;4745877;30;20043;-77
2023/04/22 06:40:15;;;;;;;0.30;0.30;;;23.90;56.70;;;;;;4768077;30;20094;-83
2023/04/22 06:43:11;;;;;;;1.02;0.70;;;23.90;55.40;;;;;;4802777;29;20407;-79
2023/04/22 06:46:00;;;;;;;0.88;0.82;;;24.10;54.90;;;;;;4791435;29;20039;-82
2023/04/22 06:48:46;;;;;;;9.38;3.88;;;23.80;54.20;;;;;;4804469;29;20075;-79
2023/04/22 06:51:24;;;;;;;6.45;3.35;;;24.00;53.60;;;;;;4788399;30;20127;-78
2023/04/22 06:53:50;;;;;;;11.30;3.47;;;24.10;53.10;;;;;;4801086;29;20463;-78
2023/04/22 06:56:17;;;;;;;7.13;3.80;;;24.00;52.80;;;;;;4821604;29;20130;-78
2023/04/22 06:58:43;;;;;;;10.75;4.85;;;23.90;52.70;;;;;;4776444;29;20044;-83
2023/04/22 07:01:09;;;;;;;6.88;4.32;;;24.00;52.80;;;;;;4784125;29;20521;-77
2023/04/22 07:03:37;;;;;;;9.90;4.50;;;24.00;52.80;;;;;;4780061;30;20047;-79
2023/04/22 07:06:08;;;;;;;7.72;3.55;;;23.90;52.80;;;;;;4803471;29;20043;-77
2023/04/22 07:08:34;;;;;;;7.55;3.88;;;23.90;52.50;;;;;;4803049;29;20118;-81
2023/04/22 07:11:01;;;;;;;7.05;4.40;;;24.00;52.00;;;;;;4771232;30;20085;-75
2023/04/22 07:13:34;;;;;;;16.23;4.05;;;23.90;52.20;;;;;;5200878;24;20081;-73
2023/04/22 07:16:00;;;;;;;4.60;2.53;;;23.90;52.10;;;;;;4805353;29;20098;-75
2023/04/22 07:18:27;;;;;;;8.05;4.18;;;24.00;51.60;;;;;;4822432;29;20030;-72
2023/04/22 07:20:53;;;;;;;12.23;4.68;;;23.90;51.80;;;;;;4818437;29;20050;-73
2023/04/22 07:23:20;;;;;;;12.35;4.85;;;23.90;51.80;;;;;;4821635;29;20057;-75
2023/04/22 07:25:46;;;;;;;12.02;4.40;;;23.90;51.70;;;;;;4823737;29;20046;-72
2023/04/22 07:28:12;;;;;;;15.13;5.07;;;23.90;51.70;;;;;;4841109;29;20121;-73
2023/04/22 07:30:38;;;;;;;8.98;5.47;;;23.90;51.70;;;;;;4839408;29;20129;-72
2023/04/22 07:33:04;;;;;;;18.10;4.90;;;24.00;51.60;;;;;;4840554;29;20050;-71
2023/04/22 07:35:30;;;;;;;14.18;5.32;;;23.80;51.50;;;;;;4840081;29;20050;-72
2023/04/22 07:37:56;;;;;;;12.57;4.70;;;23.70;51.20;;;;;;4836389;29;20088;-72
2023/04/22 07:40:22;;;;;;;14.35;4.60;;;23.70;51.90;;;;;;4803300;29;20136;-71
2023/04/22 07:42:48;;;;;;;8.30;4.40;;;23.70;52.20;;;;;;4806738;29;20124;-72
2023/04/22 07:45:14;;;;;;;6.53;4.15;;;23.70;52.40;;;;;;4819105;29;20042;-72
2023/04/22 07:47:41;;;;;;;9.93;4.10;;;23.80;52.50;;;;;;4832673;29;20070;-72
2023/04/22 07:50:07;;;;;;;9.75;4.03;;;23.70;52.50;;;;;;4840334;29;20061;-72
2023/04/22 07:52:33;;;;;;;5.68;3.00;;;23.70;52.70;;;;;;4815431;29;20499;-72
2023/04/22 07:55:00;;;;;;;6.03;3.58;;;23.70;52.90;;;;;;4807138;29;20367;-72
2023/04/22 07:57:26;;;;;;;7.35;4.75;;;23.70;52.70;;;;;;4806119;29;20077;-72
2023/04/22 07:59:52;;;;;;;7.38;4.13;;;23.80;52.90;;;;;;4824278;29;20047;-73
2023/04/22 08:02:18;;;;;;;5.32;3.67;;;23.70;53.00;;;;;;4823809;29;20440;-72
2023/04/22 08:04:44;;;;;;;5.15;3.75;;;23.70;53.10;;;;;;4824983;29;20043;-72
2023/04/22 08:07:10;;;;;;;8.45;5.05;;;23.60;52.90;;;;;;4823636;29;20731;-72
2023/04/22 08:09:36;;;;;;;5.63;3.15;;;23.70;53.00;;;;;;4822431;29;20049;-72
2023/04/22 08:12:02;;;;;;;4.90;4.20;;;23.50;53.20;;;;;;4821710;29;20038;-73
2023/04/22 08:14:28;;;;;;;7.03;4.13;;;23.70;53.20;;;;;;4824057;29;20509;-72
2023/04/22 08:16:55;;;;;;;4.22;2.75;;;23.50;53.20;;;;;;4824953;29;20106;-72
2023/04/22 08:19:21;;;;;;;9.57;4.15;;;23.60;53.50;;;;;;4825044;29;20038;-73
2023/04/22 08:21:47;;;;;;;6.45;3.58;;;23.80;53.60;;;;;;4822914;29;20054;-73
2023/04/22 08:24:13;;;;;;;5.75;3.97;;;23.60;53.60;;;;;;4838503;29;20439;-72
2023/04/22 08:26:40;;;;;;;6.65;4.43;;;23.70;53.60;;;;;;4823244;29;20788;-72
2023/04/22 08:29:06;;;;;;;4.93;3.42;;;23.70;53.70;;;;;;4823861;29;20095;-73
2023/04/22 08:31:33;;;;;;;6.88;3.25;;;23.60;53.60;;;;;;4821901;29;20042;-73
2023/04/22 08:33:59;;;;;;;9.45;4.10;;;23.70;53.80;;;;;;4824127;29;20038;-73
2023/04/22 08:36:26;;;;;;;9.07;3.80;;;23.70;53.70;;;;;;4823997;29;20041;-73
2023/04/22 08:38:53;;;;;;;7.28;3.97;;;23.70;53.80;;;;;;4821935;29;20049;-73
2023/04/22 08:41:21;;;;;;;5.93;3.30;;;23.70;53.90;;;;;;4824295;29;20038;-73
2023/04/22 08:43:48;;;;;;;5.53;3.42;;;23.70;53.90;;;;;;4838832;29;20034;-72
2023/04/22 08:46:18;;;;;;;5.80;3.83;;;23.70;53.90;;;;;;4824241;29;20839;-73
2023/04/22 08:48:47;;;;;;;4.95;3.65;;;23.80;53.80;;;;;;4822744;29;20129;-73
2023/04/22 08:51:15;;;;;;;5.82;4.15;;;23.70;53.40;;;;;;4824513;29;20118;-73
2023/04/22 08:53:46;;;;;;;7.47;4.40;;;23.60;51.20;;;;;;4824140;29;20414;-73
2023/04/22 08:56:12;;;;;;;7.50;4.13;;;23.70;53.70;;;;;;4806412;29;20074;-73
2023/04/22 08:58:42;;;;;;;7.45;4.10;;;23.70;51.90;;;;;;4806181;29;20034;-73
2023/04/22 09:01:09;;;;;;;5.38;4.32;;;23.50;53.30;;;;;;4805817;29;20050;-73
2023/04/22 09:03:39;;;;;;;9.32;4.20;;;23.70;53.60;;;;;;4815233;29;20038;-73
2023/04/22 09:06:06;;;;;;;6.85;3.58;;;23.50;52.00;;;;;;4822816;29;20038;-73
2023/04/22 09:08:32;;;;;;;5.03;3.55;;;23.60;53.70;;;;;;4824105;29;20030;-73
2023/04/22 09:10:59;;;;;;;6.45;4.00;;;23.50;54.00;;;;;;4823218;29;20042;-73
2023/04/22 09:13:28;;;;;;;9.90;4.55;;;23.60;54.00;;;;;;4823716;29;20122;-73
2023/04/22 09:15:54;;;;;;;5.75;3.72;;;23.70;54.10;;;;;;4822842;29;20035;-73
2023/04/22 09:18:20;;;;;;;5.20;4.35;;;23.50;54.00;;;;;;4824052;29;20095;-73
2023/04/22 09:20:53;;;;;;;10.52;4.47;;;23.40;54.00;;;;;;4823320;29;20030;-73
2023/04/22 09:23:20;;;;;;;15.15;4.38;;;23.50;53.40;;;;;;4822745;29;20045;-73
2023/04/22 09:25:46;;;;;;;10.02;4.47;;;23.60;54.30;;;;;;4822968;29;20117;-73
2023/04/22 09:28:17;;;;;;;5.80;3.97;;;23.60;53.30;;;;;;4823538;29;20163;-73
2023/04/22 09:30:45;;;;;;;8.75;3.80;;;23.60;54.00;;;;;;4821820;29;20056;-73
2023/04/22 09:33:16;;;;;;;6.55;4.63;;;23.50;53.90;;;;;;4823449;29;20042;-73
2023/04/22 09:35:43;;;;;;;5.18;3.70;;;23.50;53.40;;;;;;4821055;29;20046;-73
2023/04/22 09:38:11;;;;;;;4.05;3.25;;;23.70;53.70;;;;;;4821251;29;20406;-72
2023/04/22 09:40:42;;;;;;;5.13;4.00;;;23.60;54.20;;;;;;4820989;29;20073;-73
2023/04/22 09:43:09;;;;;;;4.80;3.83;;;23.50;54.30;;;;;;4820635;29;20046;-73
2023/04/22 09:45:40;;;;;;;7.25;3.85;;;23.50;54.30;;;;;;4821106;29;20436;-73
2023/04/22 09:48:11;;;;;;;9.02;4.68;;;23.40;53.00;;;;;;4821239;29;20497;-73
2023/04/22 09:50:40;;;;;;;5.57;3.92;;;23.50;53.40;;;;;;4817172;29;20055;-73
2023/04/22 09:53:08;;;;;;;5.07;3.95;;;23.40;54.20;;;;;;4820660;29;22203;-73
2023/04/22 09:55:40;;;;;;;5.65;2.90;;;23.40;54.40;;;;;;4820846;29;20046;-73
2023/04/22 09:58:16;;;;;;;4.60;3.20;;;23.40;54.40;;;;;;4820927;29;20037;-73
2023/04/22 10:00:50;;;;;;;9.10;4.22;;;23.40;54.40;;;;;;4820017;29;20071;-73
2023/04/22 10:03:17;;;;;;;6.35;3.80;;;23.60;54.50;;;;;;4820928;29;20087;-72
2023/04/22 10:05:44;;;;;;;11.23;3.72;;;23.50;54.00;;;;;;4821005;29;20042;-72
2023/04/22 10:08:12;;;;;;;8.00;4.32;;;23.50;54.50;;;;;;4836196;29;20394;-73
2023/04/22 10:10:39;;;;;;;4.45;3.63;;;23.50;54.20;;;;;;4823779;29;20050;-73
2023/04/22 10:13:05;;;;;;;9.88;3.95;;;23.50;54.40;;;;;;4823287;29;20108;-74
2023/04/22 10:15:41;;;;;;;4.32;3.33;;;23.50;54.60;;;;;;4822242;29;20053;-72
2023/04/22 10:18:11;;;;;;;5.88;3.63;;;23.60;54.70;;;;;;4823214;29;20034;-72
2023/04/22 10:20:39;;;;;;;6.25;3.00;;;23.60;54.50;;;;;;4820935;29;20058;-73
2023/04/22 10:23:10;;;;;;;4.90;3.63;;;23.50;54.30;;;;;;4821891;29;20509;-73
2023/04/22 10:25:39;;;;;;;7.75;3.97;;;23.60;54.70;;;;;;4836408;29;20053;-73
2023/04/22 10:28:07;;;;;;;7.20;3.45;;;23.50;54.60;;;;;;4836758;29;20057;-72
2023/04/22 10:30:35;;;;;;;6.35;4.00;;;23.70;54.80;;;;;;4822977;29;20065;-74
2023/04/22 10:33:20;;;;;;;6.95;3.97;;;23.50;54.70;;;;;;4812621;29;20050;-73
2023/04/22 10:36:14;;;;;;;6.43;3.97;;;23.70;54.70;;;;;;4820600;29;20049;-73
2023/04/22 10:38:41;;;;;;;9.90;3.85;;;23.50;54.70;;;;;;4822513;29;20042;-73
2023/04/22 10:41:22;;;;;;;4.88;3.17;;;23.40;54.60;;;;;;4822708;29;20448;-74
2023/04/22 10:43:57;;;;;;;5.55;3.95;;;23.50;54.70;;;;;;4821793;29;20042;-73
2023/04/22 10:46:38;;;;;;;5.38;3.53;;;23.40;54.40;;;;;;4835935;29;20483;-73
2023/04/22 10:49:19;;;;;;;6.90;3.80;;;23.50;54.80;;;;;;4821200;29;20728;-73
2023/04/22 10:51:50;;;;;;;5.85;3.50;;;23.40;54.70;;;;;;4822577;29;20049;-73
2023/04/22 10:54:26;;;;;;;4.45;3.47;;;23.30;54.30;;;;;;4804763;29;20090;-73
2023/04/22 10:57:07;;;;;;;8.75;3.80;;;23.40;54.50;;;;;;4821616;29;20493;-73
2023/04/22 10:59:45;;;;;;;5.55;2.95;;;23.50;54.70;;;;;;4821080;29;20039;-73
2023/04/22 11:02:13;;;;;;;4.13;3.28;;;23.50;54.90;;;;;;4823011;29;20114;-72
2023/04/22 11:04:39;;;;;;;4.55;3.47;;;23.40;54.40;;;;;;4824574;29;20038;-73
2023/04/22 11:07:26;;;;;;;6.35;3.83;;;23.40;54.80;;;;;;4825152;29;20110;-72
2023/04/22 11:10:06;;;;;;;4.47;3.10;;;23.50;54.70;;;;;;4838861;29;20034;-72
2023/04/22 11:12:37;;;;;;;6.53;3.25;;;23.40;54.80;;;;;;4825860;29;20081;-73
2023/04/22 11:15:07;;;;;;;3.08;2.70;;;23.50;55.00;;;;;;4824094;29;20054;-72
2023/04/22 11:17:35;;;;;;;4.65;3.95;;;23.40;54.80;;;;;;4824662;29;20046;-72
2023/04/22 11:20:02;;;;;;;8.15;3.45;;;23.40;54.70;;;;;;4822919;29;20069;-72
2023/04/22 11:22:28;;;;;;;4.78;2.58;;;23.40;54.80;;;;;;4807848;29;20034;-73
2023/04/22 11:24:55;;;;;;;5.90;3.58;;;23.40;54.80;;;;;;4814383;29;20383;-72
2023/04/22 11:27:25;;;;;;;3.85;2.88;;;23.40;53.20;;;;;;4820692;29;20121;-73
2023/04/22 11:30:01;;;;;;;5.80;3.40;;;23.40;53.30;;;;;;4807470;29;20460;-75
2023/04/22 11:32:28;;;;;;;4.97;3.38;;;23.40;54.90;;;;;;4810300;29;20030;-75
2023/04/22 11:34:55;;;;;;;3.05;2.60;;;23.40;54.50;;;;;;4821441;29;20070;-72
2023/04/22 11:37:21;;;;;;;3.20;1.77;;;23.40;53.90;;;;;;4823006;29;20095;-72
2023/04/22 11:39:50;;;;;;;2.50;2.28;;;23.30;54.90;;;;;;4827311;29;20042;-74
2023/04/22 11:42:21;;;;;;;6.57;2.90;;;23.20;54.80;;;;;;4818139;29;20053;-71
2023/04/22 11:44:47;;;;;;;3.25;1.92;;;23.40;55.00;;;;;;4793330;29;20099;-75
2023/04/22 11:47:13;;;;;;;3.53;2.60;;;23.40;55.00;;;;;;4825779;29;20509;-83
2023/04/22 11:49:39;;;;;;;1.85;1.55;;;23.30;55.20;;;;;;4810159;29;20046;-83
2023/04/22 11:52:05;;;;;;;2.90;2.58;;;23.40;55.10;;;;;;4825128;29;20042;-81
2023/04/22 11:54:36;;;;;;;2.50;1.95;;;23.50;55.80;;;;;;4824438;29;20039;-80
2023/04/22 11:57:07;;;;;;;5.63;2.47;;;23.40;55.80;;;;;;4826351;29;20102;-81
2023/04/22 11:59:34;;;;;;;3.53;2.70;;;23.40;56.10;;;;;;4823314;29;20034;-75
2023/04/22 12:02:07;;;;;;;3.22;2.75;;;23.50;52.40;;;;;;4825312;29;20038;-76
2023/04/22 12:04:37;;;;;;;;;;;23.40;56.80;;;;;;4804562;29;20507;-78
2023/04/22 12:07:03;;;;;;;5.68;2.75;;;23.50;52.80;;;;;;4824882;29;19917;-76
2023/04/22 12:09:30;;;;;;;6.15;3.08;;;23.40;55.40;;;;;;4823321;29;20045;-73
2023/04/22 12:11:56;;;;;;;4.05;2.60;;;23.40;55.80;;;;;;4824977;29;20430;-74
2023/04/22 12:14:31;;;;;;;5.15;3.25;;;23.40;56.90;;;;;;4825396;29;20499;-75
2023/04/22 12:16:57;;;;;;;6.45;3.30;;;23.40;54.60;;;;;;4824393;29;20038;-76
2023/04/22 12:19:26;;;;;;;1.48;1.38;;;23.40;56.60;;;;;;4819010;29;20041;-81
2023/04/22 12:21:56;;;;;;;1.17;0.77;;;23.50;59.20;;;;;;4825688;29;20065;-78
2023/04/22 12:24:31;;;;;;;7.40;3.97;;;23.80;59.60;;;;;;4825300;29;20096;-78
2023/04/22 12:26:57;;;;;;;1.63;1.20;;;23.90;63.80;;;;;;4824205;29;20034;-76
2023/04/22 12:29:33;;;;;;;3.47;0.75;;;24.20;66.40;;;;;;4824642;29;20479;-87
2023/04/22 12:31:59;;;;;;;1.65;1.13;;;24.40;64.20;;;;;;4823705;29;20034;-80
2023/04/22 12:34:25;;;;;;;1.85;1.50;;;24.30;59.50;;;;;;4818116;29;20038;-76
2023/04/22 12:36:52;;;;;;;1.13;1.02;;;24.10;56.90;;;;;;4824088;29;20034;-81
2023/04/22 12:39:18;;;;;;;1.85;1.13;;;24.10;55.40;;;;;;4823205;29;20100;-80
2023/04/22 12:41:46;;;;;;;3.58;1.52;;;24.10;54.50;;;;;;4824793;29;20105;-78
2023/04/22 12:44:12;;;;;;;0.95;0.95;;;24.10;54.20;;;;;;4837411;29;20026;-86
2023/04/22 12:46:38;;;;;;;1.10;0.80;;;23.90;53.70;;;;;;4818722;29;20034;-79
2023/04/22 12:49:04;;;;;;;0.95;0.95;;;24.00;52.80;;;;;;4819876;29;20040;-81
2023/04/22 12:51:30;;;;;;;6.32;1.33;;;23.90;51.90;;;;;;4825159;29;20113;-86
2023/04/22 12:53:57;;;;;;;1.02;0.93;;;23.90;50.80;;;;;;4839000;29;20524;-79
2023/04/22 12:56:23;;;;;;;0.93;0.70;;;23.90;49.90;;;;;;4825015;29;20550;-81
2023/04/22 12:58:49;;;;;;;4.28;2.03;;;23.90;50.20;;;;;;4815549;29;20114;-83
2023/04/22 13:01:15;;;;;;;0.88;0.88;;;23.70;49.50;;;;;;4825224;29;20034;-78
2023/04/22 13:03:42;;;;;;;2.28;1.92;;;23.90;49.50;;;;;;4820414;29;20046;-77
2023/04/22 13:06:08;;;;;;;3.00;2.28;;;23.90;48.90;;;;;;4804599;29;20073;-78
2023/04/22 13:08:34;;;;;;;3.05;2.13;;;23.80;49.10;;;;;;4809593;29;20499;-78
2023/04/22 13:11:00;;;;;;;3.53;2.63;;;23.90;49.40;;;;;;4819316;29;20042;-78
2023/04/22 13:13:26;;;;;;;4.50;3.00;;;23.80;49.20;;;;;;4821724;29;20147;-84
2023/04/22 13:15:52;;;;;;;11.57;4.85;;;23.90;49.20;;;;;;4802332;29;20061;-71
2023/04/22 13:18:18;;;;;;;4.80;3.45;;;23.90;49.50;;;;;;4803651;29;20141;-71
2023/04/22 13:20:45;;;;;;;7.13;3.35;;;23.80;49.70;;;;;;4819372;29;20095;-70
2023/04/22 13:23:12;;;;;;;4.63;2.95;;;23.90;50.00;;;;;;4820963;29;20141;-70
2023/04/22 13:25:38;;;;;;;3.63;2.90;;;23.80;49.90;;;;;;4816585;29;20043;-70
2023/04/22 13:28:04;;;;;;;3.90;3.25;;;23.90;50.00;;;;;;4805006;29;20046;-72
2023/04/22 13:30:30;;;;;;;3.72;3.22;;;23.90;50.20;;;;;;4814568;29;20404;-69